Flugplatz Kamp-Lintfort

Für EDLC sind keine METAR/TAF Berichte vorhanden.
Es werden die Flugwettermeldungen vom Flugplatz Niederrhein in 28 km Entfernung angezeigt.

Bericht für EDLV

vom 10.04. um 11:50 UTC

Wind 6 kt aus 70°

Sichtweite 10 km oder mehr

schwacher Sprühregen

aufgebrochene Bewölkung in 600 ft

Temperatur 7.0°C

Taupunkt 6.0°C

Luftfeuchtigkeit 93%

Luftdruck 1013 hPa

EDLV 101150Z 07006KT 020V130 9999 -DZ BKN006 07/06 Q1013

Prognose für EDLV

vom 10.04. um 11:00 UTC

Zwischen 12:00 UTC und 22:00 UTC

Wind 4 kt aus 70°

Sichtweite 10 km oder mehr

aufgebrochene Bewölkung in 800 ft


Zwischen 12:00 UTC und 03:00 UTC zeitweise

Sichtweite 4000 m

Regen

aufgebrochene Bewölkung in 1000 ft


Zwischen 22:00 und 02:00 UTC übergehend zu

Wind 5 kt aus 330°

Sichtweite 10 km oder mehr

aufgebrochene Bewölkung in 800 ft


Am 11.04. zwischen 03:00 UTC und 06:00 UTC zeitweise

Sichtweite 1400 m

feuchter Dunst

aufgebrochene Bewölkung in 400 ft


Am 11.04. zwischen 03:00 und 06:00 UTC übergehend zu

Wind 5 kt aus 330°

Sichtweite 3000 m

feuchter Dunst

aufgebrochene Bewölkung in 800 ft


Am 11.04. zwischen 10:00 und 12:00 UTC übergehend zu

Wind 5 kt aus 330°

Sichtweite 7000 m

feuchter Dunst

aufgebrochene Bewölkung in 1200 ft

TAF EDLV 101100Z 1012/1112 07004KT 9999 BKN008 TEMPO 1012/1103 4000 RA BKN010 BECMG 1022/1102 33005KT TEMPO 1103/1106 1400 BR BKN004 BECMG 1103/1106 3000 BR BECMG 1110/1112 7000 BKN012
Impressum